Terminal Aerodrome Forecast
Issued by NWS

Home | Current Version | Previous Version | Text Only | Print | Product List | Glossary On
Versions: 1 2 3 4 5 6 7 8 9 10 11 12 13 14 15 16 17 18 19
000
FTUS43 KPAH 211720
TAFCGI
TAF
KCGI 211720Z 2118/2218 21005KT P6SM SCT040
     FM220100 22003KT P6SM SCT250
     FM220600 00000KT 4SM BR SKC
     FM221300 23005KT P6SM FEW035 SCT250=

USA.gov is the U.S. government's official web portal to all federal, state and local government web resources and services.